Murrysville, Pennsylvania
Current Conditions -  °F | °C
As of 3:53 AM on Sunday 26 Oct 2014 (Local Time) from KAGC Reporting Station
Clear Clear  
Wind Chill: 10°   Ceiling: Unl
Heat Index: 10°   Visibility: 10mi
Dew Point: -2°   Wind: 9mph
Humidity: 44%   Direction: 260°W
Pressure: 29.79"   Gusts: NA
Location:  40.43°N, 79.7°W
Report Text: KAGC 260753Z AUTO 26008KT 10SM CLR 10/M02 A2979 RMK AO2 SLP091 T01001017 TSNO
Loading
Personal Weather Stations






























Interactive Weather Map
Tropical Storm Tracking
New forecast layout! Learn more

10-Day Weather Forecast

Advertisements
Track Severe Weather on mobile